Terminal Aerodrome Forecast
Issued by NWS

Home | Current Version | Previous Version | Text Only | Print | Product List | Glossary On
Versions: 1 2 3 4 5 6 7 8 9 10 11 12 13 14 15 16 17 18 19 20 21 22 23 24
000
FTUS41 KOKX 011400 AAA
TAFHPN
TAF AMD
KHPN 011434Z 0115/0212 VRB03KT P6SM BKN045
     FM011500 VRB04KT 4SM -SN SCT025 OVC040
     FM011600 VRB05KT 2SM -SN OVC015
     FM012100 VRB03KT 1SM -SN OVC008
      TEMPO 0122/0201 1/2SM SN
     FM020300 VRB03KT 1SM -FZRASN OVC008
     FM020600 27008KT 4SM BR OVC010
      AMD NOT SKED=

USA.gov is the U.S. government's official web portal to all federal, state and local government web resources and services.